Time;durP1;ratioP1;P1;durP2;ratioP2;P2;SDS_P1;SDS_P2;PMS_P1;PMS_P2;Temp;Humidity;BMP_temperature;BMP_pressure;BME280_temperature;BME280_humidity;BME280_pressure;Samples;Min_cycle;Max_cycle;Signal;HPM_P1;HPM_P2
2022/06/21 00:01:33;;;;;;;2.10;1.90;;;19.40;99.90;;;;;;5117777;28;20533;-57
2022/06/21 00:04:01;;;;;;;2.33;2.13;;;19.30;99.90;;;;;;5117734;28;20979;-57
2022/06/21 00:06:29;;;;;;;2.70;1.70;;;19.30;99.90;;;;;;5117735;28;20475;-57
2022/06/21 00:08:58;;;;;;;1.93;1.73;;;19.40;99.90;;;;;;5117797;28;20584;-57
2022/06/21 00:11:32;;;;;;;2.73;2.10;;;19.30;99.90;;;;;;5117924;28;20534;-56
2022/06/21 00:14:00;;;;;;;1.90;1.80;;;19.30;99.90;;;;;;5117905;28;20496;-57
2022/06/21 00:16:31;;;;;;;2.07;1.87;;;19.50;99.90;;;;;;5117468;28;20454;-57
2022/06/21 00:18:59;;;;;;;2.20;2.07;;;19.50;99.90;;;;;;5117744;28;20454;-56
2022/06/21 00:21:28;;;;;;;2.00;1.80;;;19.20;99.90;;;;;;5117706;28;20805;-56
2022/06/21 00:23:57;;;;;;;3.20;1.90;;;19.40;99.90;;;;;;5117670;28;20882;-56
2022/06/21 00:26:26;;;;;;;2.63;1.60;;;19.40;99.90;;;;;;5117323;28;20537;-57
2022/06/21 00:28:54;;;;;;;2.20;2.00;;;19.30;99.90;;;;;;5117820;28;20448;-57
2022/06/21 00:31:24;;;;;;;3.10;2.30;;;19.10;99.90;;;;;;5117231;28;20536;-57
2022/06/21 00:33:51;;;;;;;2.03;1.77;;;19.10;99.90;;;;;;5117484;28;20450;-56
2022/06/21 00:36:23;;;;;;;3.40;1.90;;;19.10;99.90;;;;;;5117113;28;20831;-57
2022/06/21 00:38:51;;;;;;;2.37;2.17;;;19.20;99.90;;;;;;5117311;28;20496;-57
2022/06/21 00:41:22;;;;;;;2.00;1.90;;;19.00;99.90;;;;;;5117027;28;21020;-57
2022/06/21 00:43:53;;;;;;;1.90;1.80;;;19.00;99.90;;;;;;5117383;28;20760;-57
2022/06/21 00:46:29;;;;;;;2.30;2.00;;;19.00;99.90;;;;;;5117214;28;20452;-57
2022/06/21 00:48:57;;;;;;;2.43;2.23;;;19.00;99.90;;;;;;5116820;28;21000;-56
2022/06/21 00:51:30;;;;;;;4.23;1.80;;;18.80;99.90;;;;;;5116808;28;20537;-56
2022/06/21 00:54:00;;;;;;;1.97;1.77;;;19.00;99.90;;;;;;5116828;28;20910;-57
2022/06/21 00:56:34;;;;;;;2.50;2.30;;;19.20;99.50;;;;;;5116776;28;20517;-56
2022/06/21 00:59:17;;;;;;;2.00;1.80;;;19.30;98.80;;;;;;5116958;28;20485;-56
2022/06/21 01:01:44;;;;;;;2.10;1.83;;;19.30;98.90;;;;;;5116992;28;20451;-56
2022/06/21 01:04:17;;;;;;;2.20;1.90;;;19.40;98.40;;;;;;5116908;28;20474;-56
2022/06/21 01:06:48;;;;;;;2.03;1.90;;;19.40;98.40;;;;;;5116674;28;20451;-57
2022/06/21 01:09:20;;;;;;;3.03;1.83;;;19.60;98.40;;;;;;5115908;28;20489;-56
2022/06/21 01:11:54;;;;;;;2.33;2.13;;;19.50;97.00;;;;;;5116507;28;20463;-57
2022/06/21 01:14:24;;;;;;;3.53;2.10;;;19.30;97.40;;;;;;5116473;28;20859;-57
2022/06/21 01:16:51;;;;;;;2.17;2.00;;;19.00;97.40;;;;;;5116396;28;20442;-57
2022/06/21 01:19:25;;;;;;;2.27;2.07;;;18.60;97.90;;;;;;5116526;28;20462;-57
2022/06/21 01:21:58;;;;;;;2.53;1.80;;;18.50;98.50;;;;;;5116614;28;20517;-56
2022/06/21 01:24:39;;;;;;;2.27;2.07;;;18.50;98.70;;;;;;5116292;28;20430;-56
2022/06/21 01:27:07;;;;;;;2.13;2.03;;;18.50;98.80;;;;;;5116501;28;20437;-56
2022/06/21 01:29:35;;;;;;;2.30;2.10;;;18.40;98.80;;;;;;5116259;28;20565;-56
2022/06/21 01:32:06;;;;;;;2.93;2.10;;;18.50;99.10;;;;;;5116042;28;20924;-56
2022/06/21 01:34:34;;;;;;;2.20;2.00;;;18.60;98.90;;;;;;5116159;28;20896;-56
2022/06/21 01:37:06;;;;;;;2.30;2.10;;;18.40;98.20;;;;;;5115739;28;20486;-56
2022/06/21 01:39:41;;;;;;;3.80;2.77;;;18.40;99.00;;;;;;5116205;28;20455;-56
2022/06/21 01:42:14;;;;;;;2.20;2.00;;;18.40;98.20;;;;;;5116231;28;20433;-57
2022/06/21 01:44:43;;;;;;;2.07;1.90;;;18.60;98.80;;;;;;5115858;28;20873;-56
2022/06/21 01:47:15;;;;;;;2.30;2.10;;;18.80;98.40;;;;;;5115771;28;20945;-56
2022/06/21 01:49:47;;;;;;;2.83;2.33;;;19.10;98.00;;;;;;5115622;28;20998;-56
2022/06/21 01:52:18;;;;;;;2.17;1.80;;;18.90;97.40;;;;;;5115977;28;20422;-56
2022/06/21 01:54:50;;;;;;;1.90;1.80;;;18.90;98.10;;;;;;5115649;28;20889;-56
2022/06/21 01:57:19;;;;;;;2.73;1.90;;;19.10;98.20;;;;;;5115617;28;20445;-57
2022/06/21 01:59:48;;;;;;;2.20;2.00;;;19.20;98.10;;;;;;5115742;28;20466;-57
2022/06/21 02:02:22;;;;;;;3.37;2.03;;;19.00;97.50;;;;;;5115499;28;20442;-57
2022/06/21 02:04:55;;;;;;;2.70;2.50;;;18.90;97.40;;;;;;5115780;28;20427;-56
2022/06/21 02:07:26;;;;;;;2.30;2.10;;;18.60;97.70;;;;;;5115271;28;20454;-57
2022/06/21 02:10:00;;;;;;;2.33;1.77;;;18.20;98.20;;;;;;5115495;28;20482;-56
2022/06/21 02:12:31;;;;;;;2.73;2.43;;;18.40;98.40;;;;;;5116433;28;20510;-56
2022/06/21 02:15:01;;;;;;;7.70;2.20;;;18.70;97.90;;;;;;5115569;28;20514;-57
2022/06/21 02:17:32;;;;;;;4.13;2.00;;;18.60;97.50;;;;;;5115846;28;20793;-57
2022/06/21 02:20:05;;;;;;;4.20;2.30;;;18.20;97.00;;;;;;5115135;28;20549;-57
2022/06/21 02:22:34;;;;;;;2.30;2.00;;;18.00;97.60;;;;;;5114281;28;20437;-57
2022/06/21 02:25:02;;;;;;;3.60;2.30;;;17.90;98.00;;;;;;5115823;28;20541;-56
2022/06/21 02:27:33;;;;;;;2.30;2.10;;;17.80;97.20;;;;;;5115315;28;20811;-56
2022/06/21 02:30:04;;;;;;;2.80;2.23;;;17.80;97.30;;;;;;5115078;28;20494;-56
2022/06/21 02:32:35;;;;;;;2.43;2.23;;;18.00;97.40;;;;;;5115479;28;20980;-57
2022/06/21 02:35:09;;;;;;;6.50;2.53;;;17.90;97.20;;;;;;5115161;28;20765;-57
2022/06/21 02:37:37;;;;;;;3.43;2.67;;;17.80;97.40;;;;;;5114207;28;20489;-57
2022/06/21 02:40:07;;;;;;;2.53;1.83;;;17.90;97.40;;;;;;5114641;28;20466;-57
2022/06/21 02:42:40;;;;;;;2.27;1.90;;;17.90;97.00;;;;;;5115028;28;20431;-57
2022/06/21 02:45:18;;;;;;;2.03;1.83;;;17.70;97.60;;;;;;5115498;28;20467;-56
2022/06/21 02:47:47;;;;;;;3.00;2.33;;;17.60;98.40;;;;;;5115249;28;20490;-56
2022/06/21 02:50:37;;;;;;;2.30;2.10;;;17.50;97.00;;;;;;5114343;28;20485;-56
2022/06/21 02:53:11;;;;;;;2.30;2.10;;;17.50;98.20;;;;;;5114804;28;20477;-57
2022/06/21 02:55:44;;;;;;;3.03;1.80;;;17.30;97.50;;;;;;5114493;28;20924;-56
2022/06/21 02:58:21;;;;;;;3.50;2.20;;;17.40;98.30;;;;;;5114423;28;20514;-56
2022/06/21 03:00:48;;;;;;;2.90;2.70;;;17.30;97.70;;;;;;5114629;28;20523;-57
2022/06/21 03:03:20;;;;;;;2.63;2.43;;;17.20;98.00;;;;;;5114301;28;20533;-57
2022/06/21 03:05:50;;;;;;;2.87;2.30;;;17.30;98.30;;;;;;5114921;28;20429;-57
2022/06/21 03:08:19;;;;;;;3.50;2.30;;;17.40;98.10;;;;;;5114474;28;20455;-56
2022/06/21 03:10:48;;;;;;;4.47;2.17;;;17.60;98.20;;;;;;5114352;28;20578;-56
2022/06/21 03:13:20;;;;;;;2.43;2.03;;;17.60;97.80;;;;;;5114416;28;20531;-56
2022/06/21 03:15:51;;;;;;;3.30;2.20;;;17.60;97.90;;;;;;5114086;28;20788;-57
2022/06/21 03:18:23;;;;;;;2.37;2.17;;;17.50;98.20;;;;;;5114357;28;20423;-56
2022/06/21 03:20:52;;;;;;;4.37;2.63;;;17.50;97.90;;;;;;5114203;28;20838;-56
2022/06/21 03:23:21;;;;;;;3.30;2.53;;;17.30;98.70;;;;;;5114215;28;20454;-56
2022/06/21 03:25:52;;;;;;;4.03;2.47;;;17.20;98.40;;;;;;5114217;28;20526;-57
2022/06/21 03:28:24;;;;;;;2.30;2.10;;;17.30;98.60;;;;;;5113951;28;20518;-56
2022/06/21 03:30:58;;;;;;;3.30;2.33;;;17.50;98.50;;;;;;5114109;28;20984;-56
2022/06/21 03:33:25;;;;;;;2.53;2.33;;;17.70;98.20;;;;;;5114054;28;20517;-56
2022/06/21 03:35:53;;;;;;;2.10;2.00;;;17.70;98.50;;;;;;5113839;28;20423;-57
2022/06/21 03:38:20;;;;;;;3.07;2.87;;;17.60;98.30;;;;;;5113581;28;20478;-57
2022/06/21 03:43:38;;;;;;;2.70;2.00;;;17.40;98.50;;;;;;5113885;28;20406;-56
2022/06/21 03:46:11;;;;;;;5.70;2.63;;;17.30;98.60;;;;;;5114058;28;20431;-56
2022/06/21 03:48:44;;;;;;;3.20;2.73;;;17.30;98.40;;;;;;5113641;28;20431;-58
2022/06/21 03:51:15;;;;;;;2.63;2.20;;;17.40;98.20;;;;;;5114791;28;20886;-57
2022/06/21 03:53:46;;;;;;;2.30;2.10;;;17.50;97.90;;;;;;5113636;28;20860;-57
2022/06/21 03:56:21;;;;;;;2.33;2.13;;;17.60;97.70;;;;;;5113938;28;20495;-57
2022/06/21 03:58:59;;;;;;;3.07;2.60;;;17.60;97.80;;;;;;5113574;28;20436;-57
2022/06/21 04:01:32;;;;;;;3.23;2.10;;;17.60;97.80;;;;;;5113920;28;20506;-56
2022/06/21 04:04:07;;;;;;;2.47;2.27;;;17.70;98.60;;;;;;5113885;28;20431;-56
2022/06/21 04:06:44;;;;;;;4.03;2.33;;;18.10;97.40;;;;;;5113760;28;20541;-56
2022/06/21 04:09:17;;;;;;;2.63;2.30;;;18.00;97.50;;;;;;5114108;28;20460;-57
2022/06/21 04:11:48;;;;;;;2.70;2.30;;;18.00;96.60;;;;;;5113353;28;20467;-56
2022/06/21 04:14:22;;;;;;;2.40;2.20;;;17.90;95.90;;;;;;5113466;28;20466;-56
2022/06/21 04:16:57;;;;;;;4.93;2.50;;;17.70;95.80;;;;;;5113709;28;20437;-57
2022/06/21 04:19:28;;;;;;;4.03;2.57;;;17.80;97.20;;;;;;5113579;28;20811;-56
2022/06/21 04:22:06;;;;;;;2.63;2.43;;;18.10;96.30;;;;;;5113376;28;20427;-56
2022/06/21 04:24:40;;;;;;;2.57;2.37;;;18.40;95.10;;;;;;5114125;28;20427;-57
2022/06/21 04:27:12;;;;;;;3.07;2.77;;;18.10;94.10;;;;;;5113306;28;20438;-57
2022/06/21 04:29:46;;;;;;;3.10;2.80;;;18.00;94.20;;;;;;5113530;28;20470;-57
2022/06/21 04:32:18;;;;;;;3.00;2.70;;;17.90;94.40;;;;;;5113515;28;20557;-56
2022/06/21 04:34:49;;;;;;;5.43;2.57;;;17.90;94.10;;;;;;5113869;28;20409;-56
2022/06/21 04:37:21;;;;;;;5.07;3.10;;;18.10;94.90;;;;;;5113147;28;20509;-56
2022/06/21 04:39:55;;;;;;;3.87;2.80;;;18.20;94.90;;;;;;5113128;28;20473;-57
2022/06/21 04:42:30;;;;;;;3.50;3.20;;;18.20;94.40;;;;;;5113167;28;20430;-56
2022/06/21 04:45:05;;;;;;;2.80;2.60;;;17.90;93.60;;;;;;5115142;28;20423;-56
2022/06/21 04:47:36;;;;;;;3.93;2.53;;;18.10;95.40;;;;;;5116820;28;20913;-57
2022/06/21 04:50:14;;;;;;;4.80;2.87;;;18.40;94.60;;;;;;5116568;28;20508;-57
2022/06/21 04:52:47;;;;;;;2.80;2.60;;;18.20;93.80;;;;;;5117024;28;20437;-57
2022/06/21 04:55:17;;;;;;;7.10;4.70;;;18.00;94.70;;;;;;5116636;28;20975;-57
2022/06/21 04:57:46;;;;;;;5.80;2.50;;;17.90;94.80;;;;;;5116822;28;20517;-56
2022/06/21 05:00:18;;;;;;;2.93;2.50;;;17.90;94.80;;;;;;5116728;28;20553;-56
2022/06/21 05:02:49;;;;;;;3.17;2.87;;;18.00;94.80;;;;;;5116657;28;20909;-57
2022/06/21 05:05:21;;;;;;;3.50;3.20;;;18.10;93.80;;;;;;5116836;28;20514;-56
2022/06/21 05:07:50;;;;;;;7.17;2.80;;;18.20;94.80;;;;;;5116414;28;20939;-57
2022/06/21 05:10:20;;;;;;;4.10;3.27;;;18.30;94.80;;;;;;5116174;28;20961;-57
2022/06/21 05:12:50;;;;;;;3.77;2.40;;;18.50;94.60;;;;;;5116606;28;20534;-56
2022/06/21 05:15:22;;;;;;;4.00;2.70;;;18.90;94.60;;;;;;5116336;28;20431;-57
2022/06/21 05:17:53;;;;;;;3.13;2.83;;;18.70;93.30;;;;;;5116641;28;20518;-56
2022/06/21 05:20:25;;;;;;;3.07;2.77;;;18.40;93.60;;;;;;5116119;28;20554;-57
2022/06/21 05:22:56;;;;;;;3.47;2.77;;;18.50;94.30;;;;;;5116374;28;20521;-57
2022/06/21 05:25:28;;;;;;;3.70;2.80;;;18.70;93.60;;;;;;5116074;28;20427;-57
2022/06/21 05:28:02;;;;;;;11.00;2.93;;;18.70;93.60;;;;;;5116434;28;20426;-56
2022/06/21 05:30:40;;;;;;;4.53;3.03;;;18.40;92.90;;;;;;5116095;28;20548;-57
2022/06/21 05:33:14;;;;;;;4.00;2.80;;;18.50;93.50;;;;;;5116040;28;20423;-57
2022/06/21 05:35:43;;;;;;;2.97;2.67;;;18.40;92.90;;;;;;5116130;28;20434;-57
2022/06/21 05:38:15;;;;;;;4.43;2.63;;;18.40;94.40;;;;;;5115657;28;20529;-56
2022/06/21 05:40:49;;;;;;;3.87;2.57;;;18.60;94.10;;;;;;5116075;28;20867;-57
2022/06/21 05:43:18;;;;;;;4.30;2.97;;;18.70;94.00;;;;;;5115662;28;20940;-57
2022/06/21 05:45:51;;;;;;;4.77;2.83;;;18.80;93.30;;;;;;5115625;28;20948;-56
2022/06/21 05:48:22;;;;;;;5.10;2.60;;;18.70;92.50;;;;;;5115772;28;20426;-56
2022/06/21 05:50:50;;;;;;;3.03;2.73;;;18.80;92.50;;;;;;5115486;28;20487;-57
2022/06/21 05:53:24;;;;;;;4.00;2.70;;;18.90;92.50;;;;;;5115426;28;20930;-57
2022/06/21 05:55:52;;;;;;;6.23;2.80;;;19.00;92.00;;;;;;5115604;28;20443;-57
2022/06/21 05:58:24;;;;;;;3.33;2.17;;;19.00;92.80;;;;;;5115238;28;20533;-57
2022/06/21 06:01:00;;;;;;;4.50;2.83;;;18.90;92.50;;;;;;5115254;28;20469;-57
2022/06/21 06:03:32;;;;;;;3.20;2.90;;;18.80;92.60;;;;;;5115668;28;20399;-57
2022/06/21 06:06:04;;;;;;;6.03;3.43;;;18.80;93.00;;;;;;5114861;28;20926;-57
2022/06/21 06:08:35;;;;;;;2.83;2.63;;;18.60;92.30;;;;;;5115410;28;20440;-57
2022/06/21 06:11:05;;;;;;;2.60;2.40;;;18.70;93.60;;;;;;5115214;28;20834;-57
2022/06/21 06:13:36;;;;;;;4.70;2.87;;;18.70;92.10;;;;;;5114933;28;20605;-57
2022/06/21 06:16:15;;;;;;;6.40;2.80;;;18.80;92.50;;;;;;5115877;28;20430;-57
2022/06/21 06:18:48;;;;;;;2.53;2.33;;;19.00;92.00;;;;;;5115163;28;20772;-57
2022/06/21 06:21:20;;;;;;;3.50;2.80;;;19.00;92.00;;;;;;5114820;28;20423;-57
2022/06/21 06:23:53;;;;;;;4.90;3.00;;;19.00;91.90;;;;;;5115198;28;20431;-57
2022/06/21 06:26:24;;;;;;;2.60;2.27;;;19.10;92.30;;;;;;5114825;28;20423;-57
2022/06/21 06:28:57;;;;;;;2.80;2.50;;;19.30;91.40;;;;;;5114888;28;20522;-57
2022/06/21 06:31:29;;;;;;;4.30;2.43;;;19.10;91.50;;;;;;5114909;28;20471;-57
2022/06/21 06:34:01;;;;;;;2.90;2.43;;;19.10;91.40;;;;;;5114508;28;20441;-57
2022/06/21 06:36:34;;;;;;;8.23;2.70;;;19.00;92.40;;;;;;5114397;28;20454;-56
2022/06/21 06:39:04;;;;;;;9.03;2.83;;;19.30;92.70;;;;;;5114747;28;20454;-57
2022/06/21 06:41:35;;;;;;;3.40;2.93;;;19.40;91.90;;;;;;5114325;28;20450;-57
2022/06/21 06:44:05;;;;;;;4.13;2.20;;;19.30;91.80;;;;;;5114038;28;20431;-56
2022/06/21 06:46:37;;;;;;;5.10;2.60;;;19.40;92.20;;;;;;5113990;28;20454;-56
2022/06/21 06:49:15;;;;;;;4.77;2.60;;;19.60;91.40;;;;;;5114336;28;20515;-56
2022/06/21 06:52:00;;;;;;;4.93;3.10;;;19.40;91.70;;;;;;5114074;28;20968;-57
2022/06/21 06:54:36;;;;;;;5.13;2.47;;;19.40;91.90;;;;;;5113851;28;20479;-57
2022/06/21 06:57:11;;;;;;;4.23;2.60;;;19.40;92.30;;;;;;5114538;28;20513;-57
2022/06/21 06:59:41;;;;;;;5.33;2.40;;;19.60;92.50;;;;;;5114092;28;20443;-57
2022/06/21 07:02:19;;;;;;;5.07;2.60;;;20.30;91.70;;;;;;5114756;28;20533;-57
2022/06/21 07:04:50;;;;;;;3.30;2.30;;;21.00;91.20;;;;;;5114253;28;20517;-56
2022/06/21 07:07:22;;;;;;;3.40;2.67;;;21.70;91.40;;;;;;5113266;28;20516;-56
2022/06/21 07:09:54;;;;;;;4.67;2.60;;;22.00;89.90;;;;;;5113778;28;20462;-57
2022/06/21 07:12:27;;;;;;;5.43;2.80;;;22.40;89.30;;;;;;5113611;28;20466;-57
2022/06/21 07:14:55;;;;;;;4.40;3.23;;;22.40;88.50;;;;;;5113894;28;20438;-57
2022/06/21 07:17:31;;;;;;;4.90;3.00;;;23.00;87.50;;;;;;5113749;28;20537;-57
2022/06/21 07:20:00;;;;;;;3.93;3.23;;;23.00;88.90;;;;;;5113487;28;20944;-57
2022/06/21 07:22:33;;;;;;;5.63;3.77;;;23.00;87.50;;;;;;5114040;28;20538;-57
2022/06/21 07:25:05;;;;;;;5.20;4.03;;;23.00;87.00;;;;;;5113661;28;20431;-57
2022/06/21 07:27:37;;;;;;;2.53;2.10;;;22.90;88.60;;;;;;5113776;28;20928;-57
2022/06/21 07:30:07;;;;;;;5.20;3.30;;;23.10;87.00;;;;;;5113588;28;20959;-57
2022/06/21 07:32:40;;;;;;;4.87;2.53;;;23.20;88.40;;;;;;5113532;28;21122;-57
2022/06/21 07:35:11;;;;;;;4.90;3.10;;;23.20;87.40;;;;;;5113272;28;20518;-57
2022/06/21 07:37:46;;;;;;;4.10;2.37;;;22.60;87.30;;;;;;5113148;28;20474;-57
2022/06/21 07:40:19;;;;;;;5.33;2.90;;;22.40;85.80;;;;;;5113659;28;20802;-57
2022/06/21 07:42:54;;;;;;;5.33;3.70;;;22.50;86.90;;;;;;5113456;28;20411;-57
2022/06/21 07:45:28;;;;;;;3.57;2.77;;;22.20;87.20;;;;;;5113528;28;20920;-57
2022/06/21 07:48:03;;;;;;;4.30;3.03;;;22.10;87.70;;;;;;5113369;28;20562;-57
2022/06/21 07:50:39;;;;;;;4.93;3.40;;;21.80;84.40;;;;;;5113245;28;20463;-57
2022/06/21 07:53:12;;;;;;;3.90;3.00;;;21.80;88.50;;;;;;5113574;28;20869;-57
2022/06/21 07:55:43;;;;;;;4.23;3.20;;;21.30;86.20;;;;;;5114400;28;20451;-57
2022/06/21 07:58:15;;;;;;;3.70;2.63;;;21.40;87.60;;;;;;5113216;28;20435;-57
2022/06/21 08:06:42;;;;;;;4.73;2.90;;;22.90;85.90;;;;;;5113241;28;20576;-57
2022/06/21 08:09:23;;;;;;;3.37;3.07;;;23.20;82.90;;;;;;5113003;28;20466;-57
2022/06/21 08:11:53;;;;;;;3.27;2.60;;;22.80;82.90;;;;;;5113315;28;20458;-57
2022/06/21 08:14:21;;;;;;;3.40;2.93;;;22.50;84.80;;;;;;5113217;28;20927;-57
2022/06/21 08:16:57;;;;;;;3.60;2.80;;;22.30;84.20;;;;;;5113076;28;20937;-57
2022/06/21 08:19:30;;;;;;;2.80;2.60;;;22.00;85.00;;;;;;5114044;28;20956;-58
2022/06/21 08:22:02;;;;;;;3.40;3.10;;;21.80;85.50;;;;;;5117045;28;20433;-57
2022/06/21 08:24:39;;;;;;;8.40;3.10;;;22.10;85.60;;;;;;5117225;28;20506;-57
2022/06/21 08:27:16;;;;;;;6.20;2.43;;;22.10;85.50;;;;;;5117529;28;20460;-56
2022/06/21 08:29:48;;;;;;;4.00;2.70;;;22.00;86.90;;;;;;5117162;28;20548;-57
2022/06/21 08:32:31;;;;;;;3.93;2.70;;;21.80;86.00;;;;;;5116821;28;20473;-57
2022/06/21 08:35:06;;;;;;;4.63;2.97;;;21.80;84.90;;;;;;5117072;28;20433;-57
2022/06/21 08:37:38;;;;;;;3.77;2.70;;;21.90;85.50;;;;;;5116754;28;20524;-57
2022/06/21 08:40:24;;;;;;;4.30;3.63;;;21.80;84.60;;;;;;5116913;28;20509;-57
2022/06/21 08:43:22;;;;;;;3.80;3.13;;;21.60;85.80;;;;;;5116543;28;20488;-57
2022/06/21 08:46:16;;;;;;;7.17;3.03;;;21.30;85.70;;;;;;5116533;28;20433;-57
2022/06/21 08:49:08;;;;;;;3.30;2.97;;;21.20;86.00;;;;;;5116318;28;20439;-57
2022/06/21 08:52:03;;;;;;;3.37;2.70;;;21.20;87.40;;;;;;5116434;28;20517;-57
2022/06/21 08:54:44;;;;;;;3.43;3.13;;;21.80;88.20;;;;;;5116700;28;20797;-57
2022/06/21 08:57:18;;;;;;;3.70;2.63;;;21.50;86.70;;;;;;5116457;28;20813;-57
2022/06/21 08:59:59;;;;;;;5.47;2.83;;;21.40;87.20;;;;;;5116598;28;20545;-57
2022/06/21 09:02:40;;;;;;;3.77;2.80;;;21.50;89.30;;;;;;5116478;28;20468;-57
2022/06/21 09:05:19;;;;;;;6.33;2.90;;;21.60;88.90;;;;;;5116543;28;20430;-57
2022/06/21 09:08:13;;;;;;;3.87;3.40;;;21.70;88.90;;;;;;5116152;28;21020;-56
2022/06/21 09:10:59;;;;;;;5.67;3.07;;;21.60;87.90;;;;;;5115776;28;20553;-57
2022/06/21 09:13:39;;;;;;;2.87;2.57;;;21.60;88.30;;;;;;5116208;28;20553;-57
2022/06/21 09:16:12;;;;;;;4.40;2.50;;;22.90;88.80;;;;;;5116214;28;20507;-57
2022/06/21 09:19:01;;;;;;;3.83;2.60;;;23.90;86.30;;;;;;5115794;28;20435;-57
2022/06/21 09:21:43;;;;;;;3.13;2.83;;;23.80;85.30;;;;;;5116240;28;20442;-57
2022/06/21 09:24:24;;;;;;;3.30;3.00;;;23.70;82.90;;;;;;5116116;28;20441;-57
2022/06/21 09:26:56;;;;;;;4.20;2.63;;;23.10;84.40;;;;;;5115934;28;20804;-57
2022/06/21 09:29:31;;;;;;;4.80;2.97;;;23.20;84.40;;;;;;5115896;28;20463;-57
2022/06/21 09:32:16;;;;;;;2.80;2.60;;;23.20;84.40;;;;;;5115253;28;20462;-57
2022/06/21 09:34:55;;;;;;;6.60;3.30;;;23.40;84.80;;;;;;5115767;28;20457;-57
2022/06/21 09:37:32;;;;;;;4.00;3.27;;;23.90;84.00;;;;;;5115636;28;20574;-57
2022/06/21 09:40:13;;;;;;;4.30;3.10;;;24.50;85.00;;;;;;5115441;28;20466;-57
2022/06/21 09:42:47;;;;;;;4.87;2.87;;;25.50;84.20;;;;;;5115868;28;20508;-57
2022/06/21 09:45:21;;;;;;;6.50;2.80;;;26.00;82.60;;;;;;5115565;28;20467;-57
2022/06/21 09:47:55;;;;;;;3.77;2.63;;;26.50;81.70;;;;;;5115746;28;20438;-57
2022/06/21 09:50:28;;;;;;;4.93;3.70;;;26.90;78.00;;;;;;5115401;28;20470;-57
2022/06/21 09:53:16;;;;;;;4.00;2.57;;;25.50;77.40;;;;;;5115631;28;20826;-57
2022/06/21 09:55:54;;;;;;;6.53;2.87;;;25.10;79.40;;;;;;5115713;28;20488;-58
2022/06/21 09:58:30;;;;;;;4.70;3.13;;;26.00;79.20;;;;;;5115575;28;20462;-57
2022/06/21 10:01:06;;;;;;;2.80;2.60;;;26.50;82.20;;;;;;5115534;28;20462;-57
2022/06/21 10:03:43;;;;;;;3.63;3.33;;;26.80;80.00;;;;;;5115458;28;20509;-57
2022/06/21 10:06:15;;;;;;;4.23;2.67;;;26.90;79.20;;;;;;5115056;28;20431;-57
2022/06/21 10:09:07;;;;;;;3.30;2.83;;;27.20;77.30;;;;;;5115456;28;20459;-57
2022/06/21 10:11:46;;;;;;;3.87;2.47;;;27.20;77.00;;;;;;5108248;28;20541;-57
2022/06/21 10:14:39;;;;;;;3.63;3.33;;;27.90;76.40;;;;;;5115161;28;20462;-57
2022/06/21 10:17:39;;;;;;;2.87;2.37;;;28.70;76.20;;;;;;5114959;28;20921;-57
2022/06/21 10:20:23;;;;;;;3.60;2.80;;;28.20;74.30;;;;;;5114751;28;20486;-57
2022/06/21 10:23:02;;;;;;;4.27;2.80;;;27.80;73.40;;;;;;5114757;28;20472;-57
2022/06/21 10:25:45;;;;;;;6.20;2.77;;;27.80;74.20;;;;;;5114679;28;20881;-57
2022/06/21 10:28:48;;;;;;;5.67;3.60;;;28.20;74.10;;;;;;5114749;28;20427;-57
2022/06/21 10:31:29;;;;;;;5.40;3.70;;;27.80;75.40;;;;;;5104520;28;20504;-57
2022/06/21 10:34:20;;;;;;;3.57;3.00;;;28.30;74.80;;;;;;5114791;28;20541;-58
2022/06/21 10:37:01;;;;;;;5.13;3.00;;;28.80;76.70;;;;;;5101724;28;20929;-57
2022/06/21 10:39:50;;;;;;;3.00;2.80;;;29.20;71.40;;;;;;5114428;28;20458;-57
2022/06/21 10:42:49;;;;;;;3.30;3.00;;;28.00;74.90;;;;;;5113744;28;20951;-57
2022/06/21 10:45:41;;;;;;;5.23;3.30;;;28.00;74.00;;;;;;5114459;28;20453;-57
2022/06/21 10:49:04;;;;;;;3.27;2.93;;;27.70;72.20;;;;;;5114719;28;20473;-57
2022/06/21 10:51:54;;;;;;;7.13;3.87;;;28.30;74.50;;;;;;5114699;28;20465;-57
2022/06/21 10:54:48;;;;;;;5.13;3.23;;;28.80;72.40;;;;;;5114189;28;20457;-57
2022/06/21 10:57:25;;;;;;;5.80;2.70;;;29.10;72.90;;;;;;5114978;28;20395;-57
2022/06/21 11:03:18;;;;;;;3.90;3.47;;;29.50;72.10;;;;;;5066000;28;20426;-57
2022/06/21 11:05:53;;;;;;;5.80;3.90;;;29.90;70.50;;;;;;5114299;28;20479;-57
2022/06/21 11:08:25;;;;;;;3.40;3.10;;;;;;;;;;5114158;28;20517;-57
2022/06/21 11:10:58;;;;;;;5.73;3.60;;;28.90;70.90;;;;;;5114278;28;20463;-57
2022/06/21 11:13:34;;;;;;;3.47;3.13;;;28.00;73.90;;;;;;5114117;28;20462;-58
2022/06/21 11:16:09;;;;;;;3.57;3.27;;;28.50;82.60;;;;;;5113763;28;20427;-58
2022/06/21 11:18:51;;;;;;;3.70;3.40;;;29.40;74.90;;;;;;5114023;28;20450;-58
2022/06/21 11:21:41;;;;;;;4.30;3.13;;;29.30;75.00;;;;;;5113741;28;20430;-57
2022/06/21 11:24:18;;;;;;;7.33;3.27;;;29.60;76.10;;;;;;5111035;28;20888;-58
2022/06/21 11:26:54;;;;;;;4.23;3.83;;;30.00;72.00;;;;;;5113440;28;20976;-58
2022/06/21 11:29:32;;;;;;;5.57;3.17;;;29.00;71.70;;;;;;5113500;28;20490;-58
2022/06/21 11:32:05;;;;;;;3.90;3.33;;;28.70;75.00;;;;;;5113887;28;20434;-57
2022/06/21 11:34:42;;;;;;;3.47;3.17;;;28.80;77.00;;;;;;5113311;28;20827;-58
2022/06/21 11:37:24;;;;;;;6.23;3.93;;;28.80;75.80;;;;;;5113421;28;20553;-58
2022/06/21 11:39:57;;;;;;;5.30;3.90;;;28.60;86.80;;;;;;5113909;28;20458;-57
2022/06/21 11:42:30;;;;;;;4.40;4.00;;;28.10;80.00;;;;;;5113517;28;20902;-57
2022/06/21 11:45:19;;;;;;;4.57;4.00;;;27.90;77.60;;;;;;5113201;28;20526;-57
2022/06/21 11:48:01;;;;;;;4.07;3.60;;;27.80;78.20;;;;;;5113404;28;20452;-58
2022/06/21 11:50:39;;;;;;;6.20;3.80;;;28.00;77.00;;;;;;5113184;28;20462;-58
2022/06/21 11:53:31;;;;;;;3.60;3.40;;;28.60;78.30;;;;;;5114041;28;20466;-57
2022/06/21 11:56:03;;;;;;;8.80;4.10;;;29.40;79.40;;;;;;5117320;28;20857;-58
2022/06/21 11:58:36;;;;;;;4.30;3.70;;;28.90;75.90;;;;;;5117828;28;20818;-58
2022/06/21 12:01:12;;;;;;;5.10;3.53;;;29.30;78.10;;;;;;5117798;28;20457;-58
2022/06/21 12:03:51;;;;;;;6.47;4.33;;;28.70;75.60;;;;;;5117528;28;20454;-58
2022/06/21 12:06:29;;;;;;;6.73;4.43;;;27.70;77.40;;;;;;5116427;28;20490;-59
2022/06/21 12:09:03;;;;;;;8.27;4.30;;;27.40;80.90;;;;;;5118000;28;20423;-58
2022/06/21 12:11:39;;;;;;;5.53;4.57;;;27.70;81.70;;;;;;5117358;28;20431;-58
2022/06/21 12:14:23;;;;;;;6.23;4.53;;;28.00;77.90;;;;;;5117366;28;20472;-58
2022/06/21 12:16:57;;;;;;;5.07;4.03;;;27.80;81.80;;;;;;5096866;28;20430;-58
2022/06/21 12:19:29;;;;;;;6.17;4.20;;;27.60;80.50;;;;;;5096628;28;20470;-58
2022/06/21 12:22:05;;;;;;;5.23;4.30;;;27.20;80.90;;;;;;5095796;28;20434;-58
2022/06/21 12:24:33;;;;;;;12.37;5.00;;;27.30;82.90;;;;;;5096546;28;20514;-58
2022/06/21 12:27:01;;;;;;;8.20;5.23;;;27.50;81.90;;;;;;5096907;28;20953;-58
2022/06/21 12:29:29;;;;;;;9.37;4.80;;;27.70;85.60;;;;;;5096667;28;20470;-58
2022/06/21 12:32:00;;;;;;;4.20;3.90;;;27.80;83.80;;;;;;5096569;28;20911;-58
2022/06/21 12:34:31;;;;;;;4.80;4.40;;;27.70;81.90;;;;;;5096773;28;20464;-58
2022/06/21 12:37:03;;;;;;;5.07;4.27;;;27.90;83.20;;;;;;5096377;28;20479;-56
2022/06/21 12:39:35;;;;;;;4.93;4.30;;;28.00;81.60;;;;;;5096851;28;20546;-56
2022/06/21 12:42:38;;;;;;;3.90;3.40;;;28.10;85.20;;;;;;5096387;28;20442;-57
2022/06/21 12:45:33;;;;;;;4.60;4.07;;;27.90;83.60;;;;;;5096561;28;20507;-57
2022/06/21 12:48:12;;;;;;;5.03;4.60;;;27.60;83.40;;;;;;5097057;28;20518;-57
2022/06/21 12:50:55;;;;;;;6.33;4.20;;;27.30;86.70;;;;;;5096851;28;20949;-57
2022/06/21 12:53:52;;;;;;;5.40;4.90;;;27.10;84.70;;;;;;5096488;28;20885;-57
2022/06/21 12:56:44;;;;;;;7.40;4.73;;;26.90;87.30;;;;;;5089865;28;20933;-57
2022/06/21 12:59:26;;;;;;;4.77;4.37;;;26.90;87.50;;;;;;5096172;28;20468;-57
2022/06/21 13:02:00;;;;;;;4.93;4.53;;;27.50;87.20;;;;;;5095761;28;20432;-57
2022/06/21 13:04:56;;;;;;;7.23;4.97;;;27.90;85.40;;;;;;5096233;28;20436;-57
2022/06/21 13:07:37;;;;;;;5.93;4.20;;;28.50;84.60;;;;;;5082911;28;20451;-57
2022/06/21 13:10:29;;;;;;;5.10;4.67;;;28.60;83.20;;;;;;5095784;28;20495;-57
2022/06/21 13:13:37;;;;;;;5.40;4.90;;;28.60;84.60;;;;;;5095650;28;20551;-57
2022/06/21 13:16:15;;;;;;;4.40;4.00;;;28.70;82.40;;;;;;5093222;28;20455;-57
2022/06/21 13:19:21;;;;;;;4.80;4.20;;;28.80;84.30;;;;;;5095533;28;20478;-57
2022/06/21 13:22:00;;;;;;;5.90;4.17;;;28.70;83.50;;;;;;5095576;28;20467;-58
2022/06/21 13:24:48;;;;;;;4.73;4.13;;;28.90;82.60;;;;;;5095593;28;20401;-57
2022/06/21 13:27:33;;;;;;;5.60;5.10;;;28.80;83.90;;;;;;5095520;28;20788;-57
2022/06/21 13:30:34;;;;;;;5.73;4.97;;;28.40;84.50;;;;;;5095362;28;20467;-58
2022/06/21 13:33:11;;;;;;;10.63;5.30;;;27.80;85.10;;;;;;5095357;28;21000;-58
2022/06/21 13:35:54;;;;;;;5.83;4.97;;;27.70;86.60;;;;;;5095218;28;20969;-57
2022/06/21 13:38:29;;;;;;;5.20;4.67;;;27.80;86.80;;;;;;5095058;28;20577;-58
2022/06/21 13:41:04;;;;;;;4.90;4.33;;;27.90;85.00;;;;;;5094929;28;20562;-58
2022/06/21 13:43:38;;;;;;;7.43;4.17;;;27.90;84.70;;;;;;5095349;28;20485;-58